sensor_id;sensor_type;location;lat;lon;timestamp;P1;durP1;ratioP1;P2;durP2;ratioP2
72611;SDS011;60655;52.182;4.474;2023-11-22T00:00:55;10.27;;;5.00;;
72611;SDS011;60655;52.182;4.474;2023-11-22T00:02:56;13.00;;;5.22;;
72611;SDS011;60655;52.182;4.474;2023-11-22T00:04:56;10.50;;;5.03;;
72611;SDS011;60655;52.182;4.474;2023-11-22T00:06:58;12.68;;;5.78;;
72611;SDS011;60655;52.182;4.474;2023-11-22T00:11:00;14.65;;;5.70;;
72611;SDS011;60655;52.182;4.474;2023-11-22T00:13:01;14.65;;;5.88;;
72611;SDS011;60655;52.182;4.474;2023-11-22T00:15:03;12.50;;;5.60;;
72611;SDS011;60655;52.182;4.474;2023-11-22T00:17:08;17.05;;;6.13;;
72611;SDS011;60655;52.182;4.474;2023-11-22T00:19:09;12.32;;;5.78;;
72611;SDS011;60655;52.182;4.474;2023-11-22T00:21:10;12.65;;;5.68;;
72611;SDS011;60655;52.182;4.474;2023-11-22T00:23:12;14.80;;;6.05;;
72611;SDS011;60655;52.182;4.474;2023-11-22T00:25:13;15.23;;;6.10;;
72611;SDS011;60655;52.182;4.474;2023-11-22T00:27:14;12.00;;;5.60;;
72611;SDS011;60655;52.182;4.474;2023-11-22T00:29:16;11.43;;;5.80;;
72611;SDS011;60655;52.182;4.474;2023-11-22T00:31:17;15.77;;;5.72;;
72611;SDS011;60655;52.182;4.474;2023-11-22T00:33:18;13.80;;;6.70;;
72611;SDS011;60655;52.182;4.474;2023-11-22T00:35:20;13.07;;;5.53;;
72611;SDS011;60655;52.182;4.474;2023-11-22T00:39:22;12.43;;;5.47;;
72611;SDS011;60655;52.182;4.474;2023-11-22T00:43:23;17.65;;;5.53;;
72611;SDS011;60655;52.182;4.474;2023-11-22T00:45:26;14.77;;;5.35;;
72611;SDS011;60655;52.182;4.474;2023-11-22T00:47:27;14.10;;;5.65;;
72611;SDS011;60655;52.182;4.474;2023-11-22T00:49:28;13.02;;;5.50;;
72611;SDS011;60655;52.182;4.474;2023-11-22T00:51:29;13.85;;;5.80;;
72611;SDS011;60655;52.182;4.474;2023-11-22T00:53:31;19.52;;;6.38;;
72611;SDS011;60655;52.182;4.474;2023-11-22T00:55:32;14.48;;;5.88;;
72611;SDS011;60655;52.182;4.474;2023-11-22T00:57:34;14.07;;;5.75;;
72611;SDS011;60655;52.182;4.474;2023-11-22T01:01:36;14.38;;;5.35;;
72611;SDS011;60655;52.182;4.474;2023-11-22T01:03:37;12.15;;;5.40;;
72611;SDS011;60655;52.182;4.474;2023-11-22T01:05:38;12.88;;;6.15;;
72611;SDS011;60655;52.182;4.474;2023-11-22T01:07:39;12.38;;;5.82;;
72611;SDS011;60655;52.182;4.474;2023-11-22T01:11:40;11.95;;;5.60;;
72611;SDS011;60655;52.182;4.474;2023-11-22T01:13:41;14.38;;;5.63;;
72611;SDS011;60655;52.182;4.474;2023-11-22T01:15:43;12.45;;;5.53;;
72611;SDS011;60655;52.182;4.474;2023-11-22T01:17:45;14.00;;;6.00;;
72611;SDS011;60655;52.182;4.474;2023-11-22T01:19:46;15.77;;;6.75;;
72611;SDS011;60655;52.182;4.474;2023-11-22T01:23:47;11.40;;;5.30;;
72611;SDS011;60655;52.182;4.474;2023-11-22T01:25:48;12.68;;;6.10;;
72611;SDS011;60655;52.182;4.474;2023-11-22T01:27:50;13.32;;;6.13;;
72611;SDS011;60655;52.182;4.474;2023-11-22T01:29:51;13.55;;;5.93;;
72611;SDS011;60655;52.182;4.474;2023-11-22T01:31:54;13.15;;;6.07;;
72611;SDS011;60655;52.182;4.474;2023-11-22T01:33:56;12.32;;;5.82;;
72611;SDS011;60655;52.182;4.474;2023-11-22T01:35:57;12.65;;;6.10;;
72611;SDS011;60655;52.182;4.474;2023-11-22T01:39:58;14.85;;;5.40;;
72611;SDS011;60655;52.182;4.474;2023-11-22T01:44:00;12.25;;;5.75;;
72611;SDS011;60655;52.182;4.474;2023-11-22T01:46:01;14.02;;;6.18;;
72611;SDS011;60655;52.182;4.474;2023-11-22T01:48:02;12.32;;;5.60;;
72611;SDS011;60655;52.182;4.474;2023-11-22T01:52:06;10.63;;;5.32;;
72611;SDS011;60655;52.182;4.474;2023-11-22T01:54:08;13.43;;;5.70;;
72611;SDS011;60655;52.182;4.474;2023-11-22T01:56:09;13.48;;;5.82;;
72611;SDS011;60655;52.182;4.474;2023-11-22T01:58:10;17.25;;;6.18;;
72611;SDS011;60655;52.182;4.474;2023-11-22T02:00:12;13.00;;;6.22;;
72611;SDS011;60655;52.182;4.474;2023-11-22T02:02:15;14.85;;;6.13;;
72611;SDS011;60655;52.182;4.474;2023-11-22T02:04:16;15.57;;;5.95;;
72611;SDS011;60655;52.182;4.474;2023-11-22T02:06:17;13.32;;;5.78;;
72611;SDS011;60655;52.182;4.474;2023-11-22T02:08:18;13.02;;;6.18;;
72611;SDS011;60655;52.182;4.474;2023-11-22T02:12:21;15.70;;;5.30;;
72611;SDS011;60655;52.182;4.474;2023-11-22T02:14:22;13.77;;;6.15;;
72611;SDS011;60655;52.182;4.474;2023-11-22T02:16:23;15.90;;;5.82;;
72611;SDS011;60655;52.182;4.474;2023-11-22T02:18:27;13.38;;;5.63;;
72611;SDS011;60655;52.182;4.474;2023-11-22T02:20:30;15.27;;;6.20;;
72611;SDS011;60655;52.182;4.474;2023-11-22T02:22:31;13.50;;;5.85;;
72611;SDS011;60655;52.182;4.474;2023-11-22T02:26:34;12.80;;;5.93;;
72611;SDS011;60655;52.182;4.474;2023-11-22T02:28:37;14.32;;;5.53;;
72611;SDS011;60655;52.182;4.474;2023-11-22T02:30:38;13.82;;;5.57;;
72611;SDS011;60655;52.182;4.474;2023-11-22T02:32:39;14.55;;;5.95;;
72611;SDS011;60655;52.182;4.474;2023-11-22T02:34:40;14.02;;;6.13;;
72611;SDS011;60655;52.182;4.474;2023-11-22T02:36:44;15.60;;;6.28;;
72611;SDS011;60655;52.182;4.474;2023-11-22T02:38:45;14.82;;;5.72;;
72611;SDS011;60655;52.182;4.474;2023-11-22T02:40:47;13.63;;;6.07;;
72611;SDS011;60655;52.182;4.474;2023-11-22T02:42:51;13.65;;;6.15;;
72611;SDS011;60655;52.182;4.474;2023-11-22T02:44:53;18.10;;;5.95;;
72611;SDS011;60655;52.182;4.474;2023-11-22T02:48:55;12.63;;;6.28;;
72611;SDS011;60655;52.182;4.474;2023-11-22T02:50:56;13.85;;;5.68;;
72611;SDS011;60655;52.182;4.474;2023-11-22T02:52:57;12.27;;;5.40;;
72611;SDS011;60655;52.182;4.474;2023-11-22T02:54:59;13.55;;;6.22;;
72611;SDS011;60655;52.182;4.474;2023-11-22T02:57:00;15.10;;;6.20;;
72611;SDS011;60655;52.182;4.474;2023-11-22T03:01:02;12.52;;;5.93;;
72611;SDS011;60655;52.182;4.474;2023-11-22T03:03:04;13.45;;;6.03;;
72611;SDS011;60655;52.182;4.474;2023-11-22T03:05:09;13.60;;;5.95;;
72611;SDS011;60655;52.182;4.474;2023-11-22T03:07:10;15.65;;;6.50;;
72611;SDS011;60655;52.182;4.474;2023-11-22T03:09:11;14.38;;;5.95;;
72611;SDS011;60655;52.182;4.474;2023-11-22T03:11:14;13.25;;;6.13;;
72611;SDS011;60655;52.182;4.474;2023-11-22T03:13:15;17.35;;;6.65;;
72611;SDS011;60655;52.182;4.474;2023-11-22T03:15:16;14.85;;;6.47;;
72611;SDS011;60655;52.182;4.474;2023-11-22T03:17:16;14.23;;;6.45;;
72611;SDS011;60655;52.182;4.474;2023-11-22T03:19:18;15.35;;;6.40;;
72611;SDS011;60655;52.182;4.474;2023-11-22T03:21:20;15.40;;;5.70;;
72611;SDS011;60655;52.182;4.474;2023-11-22T03:23:20;13.10;;;6.32;;
72611;SDS011;60655;52.182;4.474;2023-11-22T03:25:23;14.32;;;6.07;;
72611;SDS011;60655;52.182;4.474;2023-11-22T03:27:24;14.15;;;6.93;;
72611;SDS011;60655;52.182;4.474;2023-11-22T03:29:25;14.25;;;5.97;;
72611;SDS011;60655;52.182;4.474;2023-11-22T03:31:27;14.82;;;6.03;;
72611;SDS011;60655;52.182;4.474;2023-11-22T03:33:28;19.92;;;7.07;;
72611;SDS011;60655;52.182;4.474;2023-11-22T03:35:29;13.60;;;6.25;;
72611;SDS011;60655;52.182;4.474;2023-11-22T03:37:30;13.65;;;6.60;;
72611;SDS011;60655;52.182;4.474;2023-11-22T03:39:31;13.98;;;6.47;;
72611;SDS011;60655;52.182;4.474;2023-11-22T03:41:32;14.18;;;6.15;;
72611;SDS011;60655;52.182;4.474;2023-11-22T03:43:33;14.52;;;5.97;;
72611;SDS011;60655;52.182;4.474;2023-11-22T03:45:34;15.65;;;6.22;;
72611;SDS011;60655;52.182;4.474;2023-11-22T03:47:35;12.68;;;5.75;;
72611;SDS011;60655;52.182;4.474;2023-11-22T03:49:38;13.98;;;6.93;;
72611;SDS011;60655;52.182;4.474;2023-11-22T03:51:39;14.90;;;6.90;;
72611;SDS011;60655;52.182;4.474;2023-11-22T03:53:41;13.02;;;6.13;;
72611;SDS011;60655;52.182;4.474;2023-11-22T03:55:42;12.82;;;6.38;;
72611;SDS011;60655;52.182;4.474;2023-11-22T03:57:43;13.80;;;5.72;;
72611;SDS011;60655;52.182;4.474;2023-11-22T03:59:44;14.73;;;6.57;;
72611;SDS011;60655;52.182;4.474;2023-11-22T04:03:46;12.65;;;5.68;;
72611;SDS011;60655;52.182;4.474;2023-11-22T04:05:50;17.60;;;6.80;;
72611;SDS011;60655;52.182;4.474;2023-11-22T04:09:52;15.38;;;5.75;;
72611;SDS011;60655;52.182;4.474;2023-11-22T04:11:54;14.77;;;6.90;;
72611;SDS011;60655;52.182;4.474;2023-11-22T04:13:55;15.52;;;6.13;;
72611;SDS011;60655;52.182;4.474;2023-11-22T04:17:57;14.60;;;6.05;;
72611;SDS011;60655;52.182;4.474;2023-11-22T04:19:57;15.07;;;6.78;;
72611;SDS011;60655;52.182;4.474;2023-11-22T04:21:58;15.63;;;6.50;;
72611;SDS011;60655;52.182;4.474;2023-11-22T04:23:59;17.80;;;6.72;;
72611;SDS011;60655;52.182;4.474;2023-11-22T04:26:00;16.52;;;6.75;;
72611;SDS011;60655;52.182;4.474;2023-11-22T04:28:01;16.40;;;6.85;;
72611;SDS011;60655;52.182;4.474;2023-11-22T04:30:03;14.70;;;6.78;;
72611;SDS011;60655;52.182;4.474;2023-11-22T04:32:04;17.23;;;7.10;;
72611;SDS011;60655;52.182;4.474;2023-11-22T04:34:05;16.25;;;7.38;;
72611;SDS011;60655;52.182;4.474;2023-11-22T04:36:06;15.98;;;7.40;;
72611;SDS011;60655;52.182;4.474;2023-11-22T04:40:08;15.70;;;5.95;;
72611;SDS011;60655;52.182;4.474;2023-11-22T04:42:11;15.25;;;6.82;;
72611;SDS011;60655;52.182;4.474;2023-11-22T04:44:12;15.52;;;7.53;;
72611;SDS011;60655;52.182;4.474;2023-11-22T04:46:13;16.90;;;7.43;;
72611;SDS011;60655;52.182;4.474;2023-11-22T04:50:15;17.58;;;7.13;;
72611;SDS011;60655;52.182;4.474;2023-11-22T04:52:16;17.00;;;7.82;;
72611;SDS011;60655;52.182;4.474;2023-11-22T04:56:18;16.88;;;7.20;;
72611;SDS011;60655;52.182;4.474;2023-11-22T04:58:19;18.50;;;7.93;;
72611;SDS011;60655;52.182;4.474;2023-11-22T05:00:20;20.48;;;7.90;;
72611;SDS011;60655;52.182;4.474;2023-11-22T05:02:23;18.17;;;8.10;;
72611;SDS011;60655;52.182;4.474;2023-11-22T05:04:24;18.48;;;8.05;;
72611;SDS011;60655;52.182;4.474;2023-11-22T05:06:27;20.85;;;9.23;;
72611;SDS011;60655;52.182;4.474;2023-11-22T05:08:29;17.85;;;8.05;;
72611;SDS011;60655;52.182;4.474;2023-11-22T05:10:30;21.50;;;8.45;;
72611;SDS011;60655;52.182;4.474;2023-11-22T05:12:32;21.25;;;8.35;;
72611;SDS011;60655;52.182;4.474;2023-11-22T05:14:35;19.48;;;8.43;;
72611;SDS011;60655;52.182;4.474;2023-11-22T05:16:36;22.20;;;9.27;;
72611;SDS011;60655;52.182;4.474;2023-11-22T05:18:37;22.50;;;9.05;;
72611;SDS011;60655;52.182;4.474;2023-11-22T05:20:38;20.17;;;8.18;;
72611;SDS011;60655;52.182;4.474;2023-11-22T05:24:40;20.98;;;8.70;;
72611;SDS011;60655;52.182;4.474;2023-11-22T05:26:41;21.60;;;9.38;;
72611;SDS011;60655;52.182;4.474;2023-11-22T05:28:42;20.30;;;8.90;;
72611;SDS011;60655;52.182;4.474;2023-11-22T05:30:43;19.80;;;8.43;;
72611;SDS011;60655;52.182;4.474;2023-11-22T05:32:44;20.85;;;9.63;;
72611;SDS011;60655;52.182;4.474;2023-11-22T05:34:45;26.83;;;9.63;;
72611;SDS011;60655;52.182;4.474;2023-11-22T05:36:46;22.20;;;9.50;;
72611;SDS011;60655;52.182;4.474;2023-11-22T05:38:47;23.13;;;8.95;;
72611;SDS011;60655;52.182;4.474;2023-11-22T05:40:48;23.75;;;9.45;;
72611;SDS011;60655;52.182;4.474;2023-11-22T05:42:49;21.08;;;8.88;;
72611;SDS011;60655;52.182;4.474;2023-11-22T05:44:50;23.50;;;9.38;;
72611;SDS011;60655;52.182;4.474;2023-11-22T05:46:51;20.88;;;9.27;;
72611;SDS011;60655;52.182;4.474;2023-11-22T05:48:52;21.10;;;9.50;;
72611;SDS011;60655;52.182;4.474;2023-11-22T05:50:53;24.10;;;8.48;;
72611;SDS011;60655;52.182;4.474;2023-11-22T05:52:54;19.73;;;8.82;;
72611;SDS011;60655;52.182;4.474;2023-11-22T05:54:55;19.48;;;8.45;;
72611;SDS011;60655;52.182;4.474;2023-11-22T05:56:57;19.27;;;8.88;;
72611;SDS011;60655;52.182;4.474;2023-11-22T05:58:58;18.20;;;8.00;;
72611;SDS011;60655;52.182;4.474;2023-11-22T06:01:00;23.17;;;9.40;;
72611;SDS011;60655;52.182;4.474;2023-11-22T06:03:01;19.65;;;8.30;;
72611;SDS011;60655;52.182;4.474;2023-11-22T06:05:02;19.02;;;8.20;;
72611;SDS011;60655;52.182;4.474;2023-11-22T06:07:02;23.45;;;8.77;;
72611;SDS011;60655;52.182;4.474;2023-11-22T06:09:05;19.90;;;8.60;;
72611;SDS011;60655;52.182;4.474;2023-11-22T06:11:07;22.60;;;9.13;;
72611;SDS011;60655;52.182;4.474;2023-11-22T06:13:08;20.92;;;8.88;;
72611;SDS011;60655;52.182;4.474;2023-11-22T06:15:10;20.60;;;8.52;;
72611;SDS011;60655;52.182;4.474;2023-11-22T06:17:12;18.17;;;8.25;;
72611;SDS011;60655;52.182;4.474;2023-11-22T06:19:14;20.33;;;8.98;;
72611;SDS011;60655;52.182;4.474;2023-11-22T06:21:15;17.92;;;8.52;;
72611;SDS011;60655;52.182;4.474;2023-11-22T06:23:16;19.98;;;8.82;;
72611;SDS011;60655;52.182;4.474;2023-11-22T06:25:17;20.35;;;9.05;;
72611;SDS011;60655;52.182;4.474;2023-11-22T06:27:18;21.55;;;9.23;;
72611;SDS011;60655;52.182;4.474;2023-11-22T06:31:20;21.40;;;8.00;;
72611;SDS011;60655;52.182;4.474;2023-11-22T06:33:21;19.50;;;8.93;;
72611;SDS011;60655;52.182;4.474;2023-11-22T06:37:23;19.95;;;7.75;;
72611;SDS011;60655;52.182;4.474;2023-11-22T06:39:24;19.63;;;8.82;;
72611;SDS011;60655;52.182;4.474;2023-11-22T06:41:25;19.98;;;8.98;;
72611;SDS011;60655;52.182;4.474;2023-11-22T06:43:26;25.85;;;9.23;;
72611;SDS011;60655;52.182;4.474;2023-11-22T06:45:27;21.35;;;9.20;;
72611;SDS011;60655;52.182;4.474;2023-11-22T06:47:28;21.65;;;9.63;;
72611;SDS011;60655;52.182;4.474;2023-11-22T06:49:29;20.77;;;8.35;;
72611;SDS011;60655;52.182;4.474;2023-11-22T06:51:30;21.23;;;8.95;;
72611;SDS011;60655;52.182;4.474;2023-11-22T06:53:31;21.25;;;9.32;;
72611;SDS011;60655;52.182;4.474;2023-11-22T06:55:32;24.02;;;9.95;;
72611;SDS011;60655;52.182;4.474;2023-11-22T06:57:34;20.05;;;8.57;;
72611;SDS011;60655;52.182;4.474;2023-11-22T06:59:38;20.27;;;8.15;;
72611;SDS011;60655;52.182;4.474;2023-11-22T07:01:39;22.13;;;9.07;;
72611;SDS011;60655;52.182;4.474;2023-11-22T07:03:40;24.58;;;9.80;;
72611;SDS011;60655;52.182;4.474;2023-11-22T07:05:41;21.45;;;8.77;;
72611;SDS011;60655;52.182;4.474;2023-11-22T07:07:42;20.63;;;9.18;;
72611;SDS011;60655;52.182;4.474;2023-11-22T07:09:43;24.02;;;9.10;;
72611;SDS011;60655;52.182;4.474;2023-11-22T07:11:44;23.00;;;9.07;;
72611;SDS011;60655;52.182;4.474;2023-11-22T07:13:45;21.98;;;9.45;;
72611;SDS011;60655;52.182;4.474;2023-11-22T07:15:48;22.73;;;9.07;;
72611;SDS011;60655;52.182;4.474;2023-11-22T07:17:49;22.67;;;9.30;;
72611;SDS011;60655;52.182;4.474;2023-11-22T07:19:50;21.73;;;9.25;;
72611;SDS011;60655;52.182;4.474;2023-11-22T07:21:52;19.58;;;8.50;;
72611;SDS011;60655;52.182;4.474;2023-11-22T07:23:54;22.42;;;9.40;;
72611;SDS011;60655;52.182;4.474;2023-11-22T07:25:55;21.67;;;8.40;;
72611;SDS011;60655;52.182;4.474;2023-11-22T07:27:56;19.85;;;8.18;;
72611;SDS011;60655;52.182;4.474;2023-11-22T07:29:57;22.45;;;9.70;;
72611;SDS011;60655;52.182;4.474;2023-11-22T07:31:58;21.40;;;8.70;;
72611;SDS011;60655;52.182;4.474;2023-11-22T07:33:59;22.35;;;8.88;;
72611;SDS011;60655;52.182;4.474;2023-11-22T07:36:02;20.95;;;9.40;;
72611;SDS011;60655;52.182;4.474;2023-11-22T07:38:04;23.90;;;9.90;;
72611;SDS011;60655;52.182;4.474;2023-11-22T07:40:05;23.67;;;9.10;;
72611;SDS011;60655;52.182;4.474;2023-11-22T07:42:09;20.55;;;9.15;;
72611;SDS011;60655;52.182;4.474;2023-11-22T07:44:09;24.73;;;9.80;;
72611;SDS011;60655;52.182;4.474;2023-11-22T07:46:11;20.95;;;8.75;;
72611;SDS011;60655;52.182;4.474;2023-11-22T07:48:15;21.40;;;9.68;;
72611;SDS011;60655;52.182;4.474;2023-11-22T07:50:16;20.95;;;9.02;;
72611;SDS011;60655;52.182;4.474;2023-11-22T07:52:17;25.98;;;8.60;;
72611;SDS011;60655;52.182;4.474;2023-11-22T07:54:19;21.85;;;8.77;;
72611;SDS011;60655;52.182;4.474;2023-11-22T07:56:22;22.50;;;8.65;;
72611;SDS011;60655;52.182;4.474;2023-11-22T07:58:23;20.35;;;8.50;;
72611;SDS011;60655;52.182;4.474;2023-11-22T08:00:24;22.58;;;8.93;;
72611;SDS011;60655;52.182;4.474;2023-11-22T08:02:25;21.17;;;8.40;;
72611;SDS011;60655;52.182;4.474;2023-11-22T08:04:26;20.83;;;8.82;;
72611;SDS011;60655;52.182;4.474;2023-11-22T08:06:27;23.27;;;8.88;;
72611;SDS011;60655;52.182;4.474;2023-11-22T08:08:28;20.45;;;8.70;;
72611;SDS011;60655;52.182;4.474;2023-11-22T08:10:29;29.10;;;9.88;;
72611;SDS011;60655;52.182;4.474;2023-11-22T08:12:30;20.02;;;8.75;;
72611;SDS011;60655;52.182;4.474;2023-11-22T08:14:31;21.33;;;8.73;;
72611;SDS011;60655;52.182;4.474;2023-11-22T08:16:33;22.40;;;9.40;;
72611;SDS011;60655;52.182;4.474;2023-11-22T08:18:39;23.38;;;8.38;;
72611;SDS011;60655;52.182;4.474;2023-11-22T08:20:40;24.08;;;9.30;;
72611;SDS011;60655;52.182;4.474;2023-11-22T08:22:41;20.23;;;8.80;;
72611;SDS011;60655;52.182;4.474;2023-11-22T08:24:42;21.13;;;8.25;;
72611;SDS011;60655;52.182;4.474;2023-11-22T08:26:44;23.40;;;9.35;;
72611;SDS011;60655;52.182;4.474;2023-11-22T08:28:45;22.42;;;9.27;;
72611;SDS011;60655;52.182;4.474;2023-11-22T08:30:46;19.45;;;8.75;;
72611;SDS011;60655;52.182;4.474;2023-11-22T08:32:47;23.27;;;10.13;;
72611;SDS011;60655;52.182;4.474;2023-11-22T08:34:54;23.63;;;9.35;;
72611;SDS011;60655;52.182;4.474;2023-11-22T08:36:55;24.08;;;9.77;;
72611;SDS011;60655;52.182;4.474;2023-11-22T08:38:56;22.42;;;9.52;;
72611;SDS011;60655;52.182;4.474;2023-11-22T08:41:06;22.33;;;10.15;;
72611;SDS011;60655;52.182;4.474;2023-11-22T08:43:08;25.63;;;10.55;;
72611;SDS011;60655;52.182;4.474;2023-11-22T08:45:09;21.17;;;9.52;;
72611;SDS011;60655;52.182;4.474;2023-11-22T08:47:12;24.50;;;10.02;;
72611;SDS011;60655;52.182;4.474;2023-11-22T08:49:13;23.65;;;10.18;;
72611;SDS011;60655;52.182;4.474;2023-11-22T08:51:16;22.20;;;9.93;;
72611;SDS011;60655;52.182;4.474;2023-11-22T08:53:18;24.63;;;9.60;;
72611;SDS011;60655;52.182;4.474;2023-11-22T08:55:20;23.42;;;10.25;;
72611;SDS011;60655;52.182;4.474;2023-11-22T08:57:22;22.02;;;9.32;;
72611;SDS011;60655;52.182;4.474;2023-11-22T08:59:23;22.42;;;9.35;;
72611;SDS011;60655;52.182;4.474;2023-11-22T09:03:26;22.67;;;9.77;;
72611;SDS011;60655;52.182;4.474;2023-11-22T09:05:27;23.35;;;9.10;;
72611;SDS011;60655;52.182;4.474;2023-11-22T09:07:30;23.52;;;9.32;;
72611;SDS011;60655;52.182;4.474;2023-11-22T09:09:31;22.63;;;10.00;;
72611;SDS011;60655;52.182;4.474;2023-11-22T09:13:35;22.60;;;9.25;;
72611;SDS011;60655;52.182;4.474;2023-11-22T09:15:35;23.17;;;9.02;;
72611;SDS011;60655;52.182;4.474;2023-11-22T09:17:39;22.60;;;8.88;;
72611;SDS011;60655;52.182;4.474;2023-11-22T09:19:44;25.40;;;10.18;;
72611;SDS011;60655;52.182;4.474;2023-11-22T09:21:44;23.75;;;9.02;;
72611;SDS011;60655;52.182;4.474;2023-11-22T09:23:45;23.70;;;10.07;;
72611;SDS011;60655;52.182;4.474;2023-11-22T09:25:49;25.00;;;10.02;;
72611;SDS011;60655;52.182;4.474;2023-11-22T09:27:51;23.75;;;10.02;;
72611;SDS011;60655;52.182;4.474;2023-11-22T09:29:55;24.60;;;10.07;;
72611;SDS011;60655;52.182;4.474;2023-11-22T09:31:56;22.70;;;8.93;;
72611;SDS011;60655;52.182;4.474;2023-11-22T09:33:57;23.13;;;9.95;;
72611;SDS011;60655;52.182;4.474;2023-11-22T09:35:58;23.92;;;9.93;;
72611;SDS011;60655;52.182;4.474;2023-11-22T09:40:00;22.77;;;9.05;;
72611;SDS011;60655;52.182;4.474;2023-11-22T09:42:01;21.33;;;9.38;;
72611;SDS011;60655;52.182;4.474;2023-11-22T09:44:03;22.75;;;9.73;;
72611;SDS011;60655;52.182;4.474;2023-11-22T09:46:05;26.40;;;10.13;;
72611;SDS011;60655;52.182;4.474;2023-11-22T09:50:23;21.40;;;9.02;;
72611;SDS011;60655;52.182;4.474;2023-11-22T09:52:33;22.45;;;9.43;;
72611;SDS011;60655;52.182;4.474;2023-11-22T09:54:38;21.08;;;10.43;;
72611;SDS011;60655;52.182;4.474;2023-11-22T09:56:40;23.42;;;9.50;;
72611;SDS011;60655;52.182;4.474;2023-11-22T09:58:42;24.40;;;10.23;;
72611;SDS011;60655;52.182;4.474;2023-11-22T10:00:44;21.27;;;9.40;;
72611;SDS011;60655;52.182;4.474;2023-11-22T10:02:46;23.02;;;10.05;;
72611;SDS011;60655;52.182;4.474;2023-11-22T10:04:47;24.30;;;10.07;;
72611;SDS011;60655;52.182;4.474;2023-11-22T10:06:48;24.85;;;9.85;;
72611;SDS011;60655;52.182;4.474;2023-11-22T10:08:50;25.25;;;9.95;;
72611;SDS011;60655;52.182;4.474;2023-11-22T10:10:51;23.15;;;9.85;;
72611;SDS011;60655;52.182;4.474;2023-11-22T10:12:55;28.17;;;11.00;;
72611;SDS011;60655;52.182;4.474;2023-11-22T10:15:14;24.45;;;11.20;;
72611;SDS011;60655;52.182;4.474;2023-11-22T10:17:17;26.52;;;10.07;;
72611;SDS011;60655;52.182;4.474;2023-11-22T10:19:19;24.13;;;9.88;;
72611;SDS011;60655;52.182;4.474;2023-11-22T10:21:25;24.15;;;10.43;;
72611;SDS011;60655;52.182;4.474;2023-11-22T10:23:28;24.40;;;10.30;;
72611;SDS011;60655;52.182;4.474;2023-11-22T10:25:30;28.08;;;10.82;;
72611;SDS011;60655;52.182;4.474;2023-11-22T10:27:33;21.42;;;9.77;;
72611;SDS011;60655;52.182;4.474;2023-11-22T10:31:36;22.75;;;8.85;;
72611;SDS011;60655;52.182;4.474;2023-11-22T10:33:39;32.03;;;11.00;;
72611;SDS011;60655;52.182;4.474;2023-11-22T10:35:45;20.25;;;9.10;;
72611;SDS011;60655;52.182;4.474;2023-11-22T10:37:52;25.17;;;10.60;;
72611;SDS011;60655;52.182;4.474;2023-11-22T10:39:53;24.83;;;11.30;;
72611;SDS011;60655;52.182;4.474;2023-11-22T10:43:55;25.02;;;9.35;;
72611;SDS011;60655;52.182;4.474;2023-11-22T10:45:58;27.00;;;10.05;;
72611;SDS011;60655;52.182;4.474;2023-11-22T10:48:02;23.00;;;9.70;;
72611;SDS011;60655;52.182;4.474;2023-11-22T10:50:05;27.25;;;10.35;;
72611;SDS011;60655;52.182;4.474;2023-11-22T10:52:08;24.00;;;10.63;;
72611;SDS011;60655;52.182;4.474;2023-11-22T10:54:13;23.23;;;9.45;;
72611;SDS011;60655;52.182;4.474;2023-11-22T10:56:15;23.25;;;9.68;;
72611;SDS011;60655;52.182;4.474;2023-11-22T10:58:20;23.52;;;10.00;;
72611;SDS011;60655;52.182;4.474;2023-11-22T11:00:22;26.25;;;9.57;;
72611;SDS011;60655;52.182;4.474;2023-11-22T11:02:24;19.83;;;8.68;;
72611;SDS011;60655;52.182;4.474;2023-11-22T11:04:29;23.88;;;10.40;;
72611;SDS011;60655;52.182;4.474;2023-11-22T11:06:36;23.13;;;9.85;;
72611;SDS011;60655;52.182;4.474;2023-11-22T11:08:37;19.25;;;8.40;;
72611;SDS011;60655;52.182;4.474;2023-11-22T11:10:42;23.63;;;10.38;;
72611;SDS011;60655;52.182;4.474;2023-11-22T11:12:44;22.08;;;8.50;;
72611;SDS011;60655;52.182;4.474;2023-11-22T11:14:46;26.98;;;10.48;;
72611;SDS011;60655;52.182;4.474;2023-11-22T11:16:48;22.80;;;9.55;;
72611;SDS011;60655;52.182;4.474;2023-11-22T11:18:50;20.83;;;9.50;;
72611;SDS011;60655;52.182;4.474;2023-11-22T11:20:52;25.15;;;10.13;;
72611;SDS011;60655;52.182;4.474;2023-11-22T11:22:55;19.10;;;8.38;;
72611;SDS011;60655;52.182;4.474;2023-11-22T11:27:04;19.05;;;7.68;;
72611;SDS011;60655;52.182;4.474;2023-11-22T11:29:07;19.70;;;7.95;;
72611;SDS011;60655;52.182;4.474;2023-11-22T11:31:39;21.60;;;9.05;;
72611;SDS011;60655;52.182;4.474;2023-11-22T11:35:49;20.35;;;8.65;;
72611;SDS011;60655;52.182;4.474;2023-11-22T11:37:51;21.05;;;9.30;;
72611;SDS011;60655;52.182;4.474;2023-11-22T11:40:00;24.60;;;9.10;;
72611;SDS011;60655;52.182;4.474;2023-11-22T11:42:22;22.92;;;9.55;;
72611;SDS011;60655;52.182;4.474;2023-11-22T11:46:24;22.30;;;8.38;;
72611;SDS011;60655;52.182;4.474;2023-11-22T11:48:27;20.92;;;8.93;;
72611;SDS011;60655;52.182;4.474;2023-11-22T11:52:29;20.95;;;8.80;;
72611;SDS011;60655;52.182;4.474;2023-11-22T11:54:31;20.55;;;8.40;;
72611;SDS011;60655;52.182;4.474;2023-11-22T11:58:36;18.88;;;7.90;;
72611;SDS011;60655;52.182;4.474;2023-11-22T12:00:38;18.88;;;8.02;;
72611;SDS011;60655;52.182;4.474;2023-11-22T12:02:41;20.80;;;9.05;;
72611;SDS011;60655;52.182;4.474;2023-11-22T12:06:44;19.13;;;8.10;;
72611;SDS011;60655;52.182;4.474;2023-11-22T12:10:47;18.55;;;7.45;;
72611;SDS011;60655;52.182;4.474;2023-11-22T12:12:51;23.08;;;9.32;;
72611;SDS011;60655;52.182;4.474;2023-11-22T12:16:53;23.23;;;7.60;;
72611;SDS011;60655;52.182;4.474;2023-11-22T12:18:55;15.90;;;7.35;;
72611;SDS011;60655;52.182;4.474;2023-11-22T12:20:57;19.60;;;7.70;;
72611;SDS011;60655;52.182;4.474;2023-11-22T12:23:00;19.25;;;8.38;;
72611;SDS011;60655;52.182;4.474;2023-11-22T12:25:01;19.55;;;8.73;;
72611;SDS011;60655;52.182;4.474;2023-11-22T12:29:03;17.38;;;7.03;;
72611;SDS011;60655;52.182;4.474;2023-11-22T12:31:10;17.00;;;7.47;;
72611;SDS011;60655;52.182;4.474;2023-11-22T12:33:12;16.55;;;7.32;;
72611;SDS011;60655;52.182;4.474;2023-11-22T12:35:18;15.63;;;6.40;;
72611;SDS011;60655;52.182;4.474;2023-11-22T12:39:25;13.73;;;5.40;;
72611;SDS011;60655;52.182;4.474;2023-11-22T12:41:26;14.63;;;6.20;;
72611;SDS011;60655;52.182;4.474;2023-11-22T12:43:29;15.40;;;6.53;;
72611;SDS011;60655;52.182;4.474;2023-11-22T12:45:31;12.60;;;5.65;;
72611;SDS011;60655;52.182;4.474;2023-11-22T12:47:37;14.73;;;6.13;;
72611;SDS011;60655;52.182;4.474;2023-11-22T12:51:47;14.77;;;5.93;;
72611;SDS011;60655;52.182;4.474;2023-11-22T12:53:49;12.93;;;5.82;;
72611;SDS011;60655;52.182;4.474;2023-11-22T12:55:51;13.45;;;6.22;;
72611;SDS011;60655;52.182;4.474;2023-11-22T12:57:56;14.35;;;6.43;;
72611;SDS011;60655;52.182;4.474;2023-11-22T13:00:00;13.70;;;6.22;;
72611;SDS011;60655;52.182;4.474;2023-11-22T13:04:03;16.10;;;6.60;;
72611;SDS011;60655;52.182;4.474;2023-11-22T13:06:04;17.23;;;7.03;;
72611;SDS011;60655;52.182;4.474;2023-11-22T13:08:06;15.18;;;6.47;;
72611;SDS011;60655;52.182;4.474;2023-11-22T13:12:07;15.50;;;6.25;;
72611;SDS011;60655;52.182;4.474;2023-11-22T13:16:09;14.98;;;5.97;;
72611;SDS011;60655;52.182;4.474;2023-11-22T13:20:11;18.27;;;6.45;;
72611;SDS011;60655;52.182;4.474;2023-11-22T13:22:15;17.10;;;7.32;;
72611;SDS011;60655;52.182;4.474;2023-11-22T13:24:17;17.38;;;7.43;;
72611;SDS011;60655;52.182;4.474;2023-11-22T13:26:18;16.08;;;7.30;;
72611;SDS011;60655;52.182;4.474;2023-11-22T13:28:20;15.52;;;6.32;;
72611;SDS011;60655;52.182;4.474;2023-11-22T13:32:25;16.20;;;6.75;;